sensor_id;sensor_type;location;lat;lon;timestamp;P1;durP1;ratioP1;P2;durP2;ratioP2
15449;SDS011;7826;49.784;9.934;2023-02-18T00:01:26;3.57;;;3.13;;
15449;SDS011;7826;49.784;9.934;2023-02-18T00:03:55;4.80;;;4.00;;
15449;SDS011;7826;49.784;9.934;2023-02-18T00:06:24;3.87;;;3.47;;
15449;SDS011;7826;49.784;9.934;2023-02-18T00:08:58;5.70;;;3.83;;
15449;SDS011;7826;49.784;9.934;2023-02-18T00:11:27;5.23;;;3.60;;
15449;SDS011;7826;49.784;9.934;2023-02-18T00:13:56;4.90;;;3.70;;
15449;SDS011;7826;49.784;9.934;2023-02-18T00:16:26;4.83;;;3.60;;
15449;SDS011;7826;49.784;9.934;2023-02-18T00:18:56;4.13;;;3.77;;
15449;SDS011;7826;49.784;9.934;2023-02-18T00:21:24;4.13;;;3.73;;
15449;SDS011;7826;49.784;9.934;2023-02-18T00:23:51;3.43;;;3.13;;
15449;SDS011;7826;49.784;9.934;2023-02-18T00:26:18;4.63;;;3.73;;
15449;SDS011;7826;49.784;9.934;2023-02-18T00:28:45;4.43;;;3.40;;
15449;SDS011;7826;49.784;9.934;2023-02-18T00:31:17;4.57;;;3.97;;
15449;SDS011;7826;49.784;9.934;2023-02-18T00:33:48;6.23;;;4.70;;
15449;SDS011;7826;49.784;9.934;2023-02-18T00:36:15;5.13;;;3.97;;
15449;SDS011;7826;49.784;9.934;2023-02-18T00:38:44;5.07;;;4.00;;
15449;SDS011;7826;49.784;9.934;2023-02-18T00:41:14;4.13;;;3.33;;
15449;SDS011;7826;49.784;9.934;2023-02-18T00:43:42;6.70;;;4.10;;
15449;SDS011;7826;49.784;9.934;2023-02-18T00:46:08;4.53;;;3.57;;
15449;SDS011;7826;49.784;9.934;2023-02-18T00:48:35;5.23;;;3.97;;
15449;SDS011;7826;49.784;9.934;2023-02-18T00:51:02;5.50;;;3.73;;
15449;SDS011;7826;49.784;9.934;2023-02-18T00:53:29;5.07;;;3.80;;
15449;SDS011;7826;49.784;9.934;2023-02-18T00:55:55;4.50;;;3.47;;
15449;SDS011;7826;49.784;9.934;2023-02-18T00:58:22;4.20;;;3.33;;
15449;SDS011;7826;49.784;9.934;2023-02-18T01:00:48;3.97;;;3.37;;
15449;SDS011;7826;49.784;9.934;2023-02-18T01:03:15;4.13;;;3.53;;
15449;SDS011;7826;49.784;9.934;2023-02-18T01:05:43;4.33;;;3.20;;
15449;SDS011;7826;49.784;9.934;2023-02-18T01:08:10;4.50;;;3.60;;
15449;SDS011;7826;49.784;9.934;2023-02-18T01:10:40;5.90;;;3.73;;
15449;SDS011;7826;49.784;9.934;2023-02-18T01:13:07;4.97;;;3.70;;
15449;SDS011;7826;49.784;9.934;2023-02-18T01:15:34;4.83;;;3.63;;
15449;SDS011;7826;49.784;9.934;2023-02-18T01:18:00;4.50;;;3.53;;
15449;SDS011;7826;49.784;9.934;2023-02-18T01:20:26;4.77;;;3.90;;
15449;SDS011;7826;49.784;9.934;2023-02-18T01:22:53;3.63;;;3.13;;
15449;SDS011;7826;49.784;9.934;2023-02-18T01:25:19;5.43;;;3.17;;
15449;SDS011;7826;49.784;9.934;2023-02-18T01:27:45;6.03;;;3.30;;
15449;SDS011;7826;49.784;9.934;2023-02-18T01:30:14;3.70;;;3.17;;
15449;SDS011;7826;49.784;9.934;2023-02-18T01:32:42;4.17;;;3.33;;
15449;SDS011;7826;49.784;9.934;2023-02-18T01:35:10;3.00;;;2.70;;
15449;SDS011;7826;49.784;9.934;2023-02-18T01:37:38;4.10;;;3.10;;
15449;SDS011;7826;49.784;9.934;2023-02-18T01:40:05;4.90;;;3.20;;
15449;SDS011;7826;49.784;9.934;2023-02-18T01:42:35;3.23;;;2.67;;
15449;SDS011;7826;49.784;9.934;2023-02-18T01:48:10;3.53;;;2.87;;
15449;SDS011;7826;49.784;9.934;2023-02-18T01:50:43;3.50;;;2.80;;
15449;SDS011;7826;49.784;9.934;2023-02-18T01:53:13;3.10;;;2.50;;
15449;SDS011;7826;49.784;9.934;2023-02-18T01:55:41;2.53;;;2.33;;
15449;SDS011;7826;49.784;9.934;2023-02-18T01:58:08;2.57;;;2.10;;
15449;SDS011;7826;49.784;9.934;2023-02-18T02:00:37;2.60;;;2.40;;
15449;SDS011;7826;49.784;9.934;2023-02-18T02:03:03;2.80;;;2.50;;
15449;SDS011;7826;49.784;9.934;2023-02-18T02:05:30;4.73;;;2.43;;
15449;SDS011;7826;49.784;9.934;2023-02-18T02:07:58;2.53;;;2.33;;
15449;SDS011;7826;49.784;9.934;2023-02-18T02:10:29;2.67;;;2.23;;
15449;SDS011;7826;49.784;9.934;2023-02-18T02:24:00;5.17;;;2.80;;
15449;SDS011;7826;49.784;9.934;2023-02-18T02:33:22;3.63;;;2.37;;
15449;SDS011;7826;49.784;9.934;2023-02-18T02:35:31;2.83;;;2.47;;
15449;SDS011;7826;49.784;9.934;2023-02-18T02:38:07;2.67;;;2.30;;
15449;SDS011;7826;49.784;9.934;2023-02-18T02:46:39;3.03;;;2.40;;
15449;SDS011;7826;49.784;9.934;2023-02-18T02:52:11;2.17;;;1.87;;
15449;SDS011;7826;49.784;9.934;2023-02-18T02:54:42;2.53;;;2.10;;
15449;SDS011;7826;49.784;9.934;2023-02-18T02:57:40;2.20;;;2.00;;
15449;SDS011;7826;49.784;9.934;2023-02-18T02:59:56;2.37;;;1.93;;
15449;SDS011;7826;49.784;9.934;2023-02-18T03:02:36;2.67;;;2.00;;
15449;SDS011;7826;49.784;9.934;2023-02-18T03:05:19;2.20;;;2.00;;
15449;SDS011;7826;49.784;9.934;2023-02-18T03:13:25;2.30;;;1.70;;
15449;SDS011;7826;49.784;9.934;2023-02-18T03:16:20;2.43;;;2.00;;
15449;SDS011;7826;49.784;9.934;2023-02-18T03:22:12;1.73;;;1.53;;
15449;SDS011;7826;49.784;9.934;2023-02-18T03:24:49;2.30;;;2.10;;
15449;SDS011;7826;49.784;9.934;2023-02-18T03:27:20;3.07;;;2.30;;
15449;SDS011;7826;49.784;9.934;2023-02-18T03:33:13;2.30;;;2.10;;
15449;SDS011;7826;49.784;9.934;2023-02-18T03:35:45;2.23;;;1.80;;
15449;SDS011;7826;49.784;9.934;2023-02-18T03:38:16;2.10;;;1.80;;
15449;SDS011;7826;49.784;9.934;2023-02-18T03:41:01;2.03;;;1.93;;
15449;SDS011;7826;49.784;9.934;2023-02-18T03:43:27;3.63;;;2.33;;
15449;SDS011;7826;49.784;9.934;2023-02-18T03:45:54;2.87;;;2.17;;
15449;SDS011;7826;49.784;9.934;2023-02-18T03:48:20;2.33;;;2.10;;
15449;SDS011;7826;49.784;9.934;2023-02-18T03:50:46;2.57;;;2.00;;
15449;SDS011;7826;49.784;9.934;2023-02-18T03:53:13;2.53;;;2.13;;
15449;SDS011;7826;49.784;9.934;2023-02-18T03:55:39;1.77;;;1.67;;
15449;SDS011;7826;49.784;9.934;2023-02-18T03:58:05;3.10;;;2.30;;
15449;SDS011;7826;49.784;9.934;2023-02-18T04:00:32;2.90;;;2.17;;
15449;SDS011;7826;49.784;9.934;2023-02-18T04:02:58;2.07;;;1.90;;
15449;SDS011;7826;49.784;9.934;2023-02-18T04:05:24;1.90;;;1.73;;
15449;SDS011;7826;49.784;9.934;2023-02-18T04:07:51;2.50;;;1.90;;
15449;SDS011;7826;49.784;9.934;2023-02-18T04:10:17;2.27;;;1.93;;
15449;SDS011;7826;49.784;9.934;2023-02-18T04:12:44;1.83;;;1.73;;
15449;SDS011;7826;49.784;9.934;2023-02-18T04:15:10;2.17;;;1.60;;
15449;SDS011;7826;49.784;9.934;2023-02-18T04:17:38;1.60;;;1.50;;
15449;SDS011;7826;49.784;9.934;2023-02-18T04:20:04;3.00;;;2.00;;
15449;SDS011;7826;49.784;9.934;2023-02-18T04:22:31;2.43;;;1.83;;
15449;SDS011;7826;49.784;9.934;2023-02-18T04:24:58;2.00;;;1.80;;
15449;SDS011;7826;49.784;9.934;2023-02-18T04:27:25;2.07;;;1.80;;
15449;SDS011;7826;49.784;9.934;2023-02-18T04:29:51;2.10;;;1.90;;
15449;SDS011;7826;49.784;9.934;2023-02-18T04:32:17;2.23;;;1.97;;
15449;SDS011;7826;49.784;9.934;2023-02-18T04:34:44;2.90;;;2.03;;
15449;SDS011;7826;49.784;9.934;2023-02-18T04:37:10;2.97;;;2.40;;
15449;SDS011;7826;49.784;9.934;2023-02-18T04:39:36;2.23;;;2.00;;
15449;SDS011;7826;49.784;9.934;2023-02-18T04:42:02;2.87;;;2.17;;
15449;SDS011;7826;49.784;9.934;2023-02-18T04:44:34;3.00;;;2.07;;
15449;SDS011;7826;49.784;9.934;2023-02-18T04:47:01;3.07;;;2.30;;
15449;SDS011;7826;49.784;9.934;2023-02-18T04:49:28;2.30;;;2.10;;
15449;SDS011;7826;49.784;9.934;2023-02-18T04:51:55;2.20;;;2.00;;
15449;SDS011;7826;49.784;9.934;2023-02-18T04:54:21;2.17;;;1.97;;
15449;SDS011;7826;49.784;9.934;2023-02-18T04:56:47;2.30;;;1.90;;
15449;SDS011;7826;49.784;9.934;2023-02-18T04:59:14;2.53;;;2.03;;
15449;SDS011;7826;49.784;9.934;2023-02-18T05:01:40;3.23;;;2.30;;
15449;SDS011;7826;49.784;9.934;2023-02-18T05:04:06;2.27;;;2.07;;
15449;SDS011;7826;49.784;9.934;2023-02-18T05:06:33;4.17;;;2.63;;
15449;SDS011;7826;49.784;9.934;2023-02-18T05:08:59;2.83;;;2.47;;
15449;SDS011;7826;49.784;9.934;2023-02-18T05:11:25;3.03;;;2.27;;
15449;SDS011;7826;49.784;9.934;2023-02-18T05:13:52;2.53;;;2.13;;
15449;SDS011;7826;49.784;9.934;2023-02-18T05:16:18;2.90;;;2.47;;
15449;SDS011;7826;49.784;9.934;2023-02-18T05:18:44;3.67;;;2.37;;
15449;SDS011;7826;49.784;9.934;2023-02-18T05:21:10;3.00;;;2.40;;
15449;SDS011;7826;49.784;9.934;2023-02-18T05:23:37;2.90;;;2.50;;
15449;SDS011;7826;49.784;9.934;2023-02-18T05:26:03;2.90;;;2.60;;
15449;SDS011;7826;49.784;9.934;2023-02-18T05:28:29;2.70;;;2.20;;
15449;SDS011;7826;49.784;9.934;2023-02-18T05:30:56;3.20;;;2.17;;
15449;SDS011;7826;49.784;9.934;2023-02-18T05:33:23;3.40;;;2.20;;
15449;SDS011;7826;49.784;9.934;2023-02-18T05:35:49;2.50;;;1.90;;
15449;SDS011;7826;49.784;9.934;2023-02-18T05:38:16;2.37;;;2.03;;
15449;SDS011;7826;49.784;9.934;2023-02-18T05:40:42;3.00;;;2.27;;
15449;SDS011;7826;49.784;9.934;2023-02-18T05:43:08;2.20;;;1.80;;
15449;SDS011;7826;49.784;9.934;2023-02-18T05:45:35;2.40;;;2.20;;
15449;SDS011;7826;49.784;9.934;2023-02-18T05:48:01;3.23;;;2.73;;
15449;SDS011;7826;49.784;9.934;2023-02-18T05:50:28;3.30;;;2.40;;
15449;SDS011;7826;49.784;9.934;2023-02-18T05:52:54;3.47;;;2.87;;
15449;SDS011;7826;49.784;9.934;2023-02-18T05:55:21;4.80;;;2.90;;
15449;SDS011;7826;49.784;9.934;2023-02-18T05:57:49;4.20;;;2.40;;
15449;SDS011;7826;49.784;9.934;2023-02-18T06:00:16;3.57;;;2.50;;
15449;SDS011;7826;49.784;9.934;2023-02-18T06:02:43;3.10;;;2.40;;
15449;SDS011;7826;49.784;9.934;2023-02-18T06:05:09;3.10;;;2.57;;
15449;SDS011;7826;49.784;9.934;2023-02-18T06:07:35;2.53;;;2.20;;
15449;SDS011;7826;49.784;9.934;2023-02-18T06:10:02;3.33;;;2.10;;
15449;SDS011;7826;49.784;9.934;2023-02-18T06:12:29;3.20;;;2.63;;
15449;SDS011;7826;49.784;9.934;2023-02-18T06:14:55;4.13;;;2.87;;
15449;SDS011;7826;49.784;9.934;2023-02-18T06:17:22;4.23;;;2.90;;
15449;SDS011;7826;49.784;9.934;2023-02-18T06:19:48;6.23;;;3.80;;
15449;SDS011;7826;49.784;9.934;2023-02-18T06:22:14;5.00;;;3.37;;
15449;SDS011;7826;49.784;9.934;2023-02-18T06:24:41;3.93;;;3.10;;
15449;SDS011;7826;49.784;9.934;2023-02-18T06:27:07;3.53;;;2.83;;
15449;SDS011;7826;49.784;9.934;2023-02-18T06:29:33;4.23;;;3.60;;
15449;SDS011;7826;49.784;9.934;2023-02-18T06:32:01;6.33;;;3.17;;
15449;SDS011;7826;49.784;9.934;2023-02-18T06:34:27;4.13;;;3.30;;
15449;SDS011;7826;49.784;9.934;2023-02-18T06:36:54;4.33;;;3.07;;
15449;SDS011;7826;49.784;9.934;2023-02-18T06:39:20;4.90;;;3.27;;
15449;SDS011;7826;49.784;9.934;2023-02-18T06:41:46;5.97;;;3.03;;
15449;SDS011;7826;49.784;9.934;2023-02-18T06:44:13;5.03;;;3.50;;
15449;SDS011;7826;49.784;9.934;2023-02-18T06:46:41;4.23;;;3.37;;
15449;SDS011;7826;49.784;9.934;2023-02-18T06:49:09;5.67;;;3.70;;
15449;SDS011;7826;49.784;9.934;2023-02-18T06:51:35;9.13;;;3.70;;
15449;SDS011;7826;49.784;9.934;2023-02-18T06:54:01;6.00;;;4.10;;
15449;SDS011;7826;49.784;9.934;2023-02-18T06:56:27;5.43;;;3.63;;
15449;SDS011;7826;49.784;9.934;2023-02-18T06:58:54;5.17;;;3.93;;
15449;SDS011;7826;49.784;9.934;2023-02-18T07:01:20;5.60;;;4.47;;
15449;SDS011;7826;49.784;9.934;2023-02-18T07:03:46;6.97;;;4.77;;
15449;SDS011;7826;49.784;9.934;2023-02-18T07:06:12;6.00;;;4.63;;
15449;SDS011;7826;49.784;9.934;2023-02-18T07:08:38;6.70;;;4.47;;
15449;SDS011;7826;49.784;9.934;2023-02-18T07:11:05;6.87;;;4.93;;
15449;SDS011;7826;49.784;9.934;2023-02-18T07:13:31;6.93;;;5.10;;
15449;SDS011;7826;49.784;9.934;2023-02-18T07:15:58;6.33;;;4.30;;
15449;SDS011;7826;49.784;9.934;2023-02-18T07:18:24;6.40;;;4.77;;
15449;SDS011;7826;49.784;9.934;2023-02-18T07:20:50;7.13;;;5.13;;
15449;SDS011;7826;49.784;9.934;2023-02-18T07:23:16;7.97;;;5.07;;
15449;SDS011;7826;49.784;9.934;2023-02-18T07:25:43;6.63;;;4.60;;
15449;SDS011;7826;49.784;9.934;2023-02-18T07:28:09;8.60;;;5.30;;
15449;SDS011;7826;49.784;9.934;2023-02-18T07:30:35;6.93;;;4.47;;
15449;SDS011;7826;49.784;9.934;2023-02-18T07:33:02;6.13;;;4.57;;
15449;SDS011;7826;49.784;9.934;2023-02-18T07:35:29;7.97;;;4.63;;
15449;SDS011;7826;49.784;9.934;2023-02-18T07:37:55;6.00;;;4.17;;
15449;SDS011;7826;49.784;9.934;2023-02-18T07:40:22;6.10;;;4.10;;
15449;SDS011;7826;49.784;9.934;2023-02-18T07:42:49;5.87;;;4.60;;
15449;SDS011;7826;49.784;9.934;2023-02-18T07:45:15;6.57;;;4.70;;
15449;SDS011;7826;49.784;9.934;2023-02-18T07:47:42;5.47;;;4.27;;
15449;SDS011;7826;49.784;9.934;2023-02-18T07:50:10;6.83;;;4.43;;
15449;SDS011;7826;49.784;9.934;2023-02-18T07:52:36;6.07;;;4.30;;
15449;SDS011;7826;49.784;9.934;2023-02-18T07:55:03;5.87;;;4.40;;
15449;SDS011;7826;49.784;9.934;2023-02-18T07:57:29;4.80;;;3.90;;
15449;SDS011;7826;49.784;9.934;2023-02-18T07:59:56;4.77;;;3.77;;
15449;SDS011;7826;49.784;9.934;2023-02-18T08:02:23;5.63;;;4.40;;
15449;SDS011;7826;49.784;9.934;2023-02-18T08:04:50;4.23;;;3.60;;
15449;SDS011;7826;49.784;9.934;2023-02-18T08:07:17;5.50;;;4.17;;
15449;SDS011;7826;49.784;9.934;2023-02-18T08:09:45;4.47;;;3.87;;
15449;SDS011;7826;49.784;9.934;2023-02-18T08:12:12;6.60;;;4.80;;
15449;SDS011;7826;49.784;9.934;2023-02-18T08:14:38;5.37;;;4.00;;
15449;SDS011;7826;49.784;9.934;2023-02-18T08:17:05;8.17;;;4.57;;
15449;SDS011;7826;49.784;9.934;2023-02-18T08:19:31;6.87;;;4.40;;
15449;SDS011;7826;49.784;9.934;2023-02-18T08:22:00;5.77;;;3.87;;
15449;SDS011;7826;49.784;9.934;2023-02-18T08:24:27;5.57;;;4.00;;
15449;SDS011;7826;49.784;9.934;2023-02-18T08:26:53;4.97;;;3.77;;
15449;SDS011;7826;49.784;9.934;2023-02-18T08:29:20;5.83;;;3.90;;
15449;SDS011;7826;49.784;9.934;2023-02-18T08:31:46;4.63;;;3.90;;
15449;SDS011;7826;49.784;9.934;2023-02-18T08:34:12;4.60;;;3.77;;
15449;SDS011;7826;49.784;9.934;2023-02-18T08:36:39;6.03;;;4.23;;
15449;SDS011;7826;49.784;9.934;2023-02-18T08:39:05;4.53;;;3.80;;
15449;SDS011;7826;49.784;9.934;2023-02-18T08:41:31;5.20;;;4.17;;
15449;SDS011;7826;49.784;9.934;2023-02-18T08:43:58;4.33;;;3.80;;
15449;SDS011;7826;49.784;9.934;2023-02-18T08:46:24;4.55;;;3.92;;
15449;SDS011;7826;49.784;9.934;2023-02-18T08:48:50;7.17;;;4.40;;
15449;SDS011;7826;49.784;9.934;2023-02-18T08:51:18;4.20;;;3.73;;
15449;SDS011;7826;49.784;9.934;2023-02-18T08:53:45;4.57;;;4.00;;
15449;SDS011;7826;49.784;9.934;2023-02-18T08:56:12;6.80;;;4.37;;
15449;SDS011;7826;49.784;9.934;2023-02-18T08:58:39;6.00;;;3.90;;
15449;SDS011;7826;49.784;9.934;2023-02-18T09:01:07;4.90;;;3.60;;
15449;SDS011;7826;49.784;9.934;2023-02-18T09:03:35;5.57;;;4.17;;
15449;SDS011;7826;49.784;9.934;2023-02-18T09:06:02;4.60;;;4.07;;
15449;SDS011;7826;49.784;9.934;2023-02-18T09:08:29;5.43;;;3.73;;
15449;SDS011;7826;49.784;9.934;2023-02-18T09:10:59;6.53;;;4.23;;
15449;SDS011;7826;49.784;9.934;2023-02-18T09:13:28;6.60;;;3.90;;
15449;SDS011;7826;49.784;9.934;2023-02-18T09:15:56;5.77;;;4.43;;
15449;SDS011;7826;49.784;9.934;2023-02-18T09:18:22;5.13;;;3.80;;
15449;SDS011;7826;49.784;9.934;2023-02-18T09:20:49;5.07;;;4.00;;
15449;SDS011;7826;49.784;9.934;2023-02-18T09:23:15;4.37;;;3.37;;
15449;SDS011;7826;49.784;9.934;2023-02-18T09:25:42;4.47;;;3.73;;
15449;SDS011;7826;49.784;9.934;2023-02-18T09:28:08;6.93;;;4.53;;
15449;SDS011;7826;49.784;9.934;2023-02-18T09:30:35;6.23;;;4.13;;
15449;SDS011;7826;49.784;9.934;2023-02-18T09:33:01;5.60;;;4.30;;
15449;SDS011;7826;49.784;9.934;2023-02-18T09:35:27;5.23;;;4.33;;
15449;SDS011;7826;49.784;9.934;2023-02-18T09:37:53;5.60;;;4.33;;
15449;SDS011;7826;49.784;9.934;2023-02-18T09:40:23;6.13;;;4.00;;
15449;SDS011;7826;49.784;9.934;2023-02-18T09:42:56;6.00;;;4.77;;
15449;SDS011;7826;49.784;9.934;2023-02-18T09:45:23;4.80;;;3.97;;
15449;SDS011;7826;49.784;9.934;2023-02-18T09:47:50;5.10;;;4.60;;
15449;SDS011;7826;49.784;9.934;2023-02-18T09:50:19;4.50;;;3.77;;
15449;SDS011;7826;49.784;9.934;2023-02-18T09:52:55;4.60;;;3.97;;
15449;SDS011;7826;49.784;9.934;2023-02-18T09:55:31;5.30;;;3.87;;
15449;SDS011;7826;49.784;9.934;2023-02-18T09:58:06;4.03;;;3.40;;
15449;SDS011;7826;49.784;9.934;2023-02-18T10:00:39;4.33;;;3.57;;
15449;SDS011;7826;49.784;9.934;2023-02-18T10:03:14;4.60;;;3.53;;
15449;SDS011;7826;49.784;9.934;2023-02-18T10:05:50;6.23;;;3.60;;
15449;SDS011;7826;49.784;9.934;2023-02-18T10:08:31;4.50;;;3.60;;
15449;SDS011;7826;49.784;9.934;2023-02-18T10:11:00;3.97;;;3.23;;
15449;SDS011;7826;49.784;9.934;2023-02-18T10:13:28;3.53;;;3.23;;
15449;SDS011;7826;49.784;9.934;2023-02-18T10:15:56;5.20;;;3.53;;
15449;SDS011;7826;49.784;9.934;2023-02-18T10:21:00;4.43;;;3.50;;
15449;SDS011;7826;49.784;9.934;2023-02-18T10:23:36;5.57;;;3.47;;
15449;SDS011;7826;49.784;9.934;2023-02-18T10:26:06;4.30;;;3.23;;
15449;SDS011;7826;49.784;9.934;2023-02-18T10:28:39;3.67;;;3.33;;
15449;SDS011;7826;49.784;9.934;2023-02-18T10:31:09;6.00;;;4.10;;
15449;SDS011;7826;49.784;9.934;2023-02-18T10:33:46;4.83;;;3.23;;
15449;SDS011;7826;49.784;9.934;2023-02-18T10:41:28;4.80;;;3.50;;
15449;SDS011;7826;49.784;9.934;2023-02-18T10:46:57;4.77;;;3.70;;
15449;SDS011;7826;49.784;9.934;2023-02-18T10:52:20;4.53;;;3.67;;
15449;SDS011;7826;49.784;9.934;2023-02-18T10:54:57;5.90;;;3.73;;
15449;SDS011;7826;49.784;9.934;2023-02-18T10:57:24;6.03;;;4.00;;
15449;SDS011;7826;49.784;9.934;2023-02-18T11:00:02;4.70;;;3.87;;
15449;SDS011;7826;49.784;9.934;2023-02-18T11:02:35;4.57;;;3.77;;
15449;SDS011;7826;49.784;9.934;2023-02-18T11:05:24;6.03;;;3.70;;
15449;SDS011;7826;49.784;9.934;2023-02-18T11:07:51;4.63;;;3.67;;
15449;SDS011;7826;49.784;9.934;2023-02-18T11:10:23;4.47;;;3.33;;
15449;SDS011;7826;49.784;9.934;2023-02-18T11:12:55;4.60;;;3.60;;
15449;SDS011;7826;49.784;9.934;2023-02-18T11:15:26;5.73;;;4.27;;
15449;SDS011;7826;49.784;9.934;2023-02-18T11:17:54;5.50;;;4.03;;
15449;SDS011;7826;49.784;9.934;2023-02-18T11:20:37;4.70;;;3.60;;
15449;SDS011;7826;49.784;9.934;2023-02-18T11:25:34;4.70;;;3.33;;
15449;SDS011;7826;49.784;9.934;2023-02-18T11:28:04;5.93;;;3.80;;
15449;SDS011;7826;49.784;9.934;2023-02-18T11:30:58;4.47;;;3.43;;
15449;SDS011;7826;49.784;9.934;2023-02-18T11:33:33;5.80;;;4.30;;
15449;SDS011;7826;49.784;9.934;2023-02-18T11:36:21;5.53;;;4.00;;
15449;SDS011;7826;49.784;9.934;2023-02-18T11:39:19;5.73;;;3.83;;
15449;SDS011;7826;49.784;9.934;2023-02-18T11:44:33;4.60;;;3.53;;
15449;SDS011;7826;49.784;9.934;2023-02-18T11:47:05;5.87;;;3.87;;
15449;SDS011;7826;49.784;9.934;2023-02-18T11:49:35;5.37;;;3.80;;
15449;SDS011;7826;49.784;9.934;2023-02-18T11:52:02;4.87;;;3.73;;
15449;SDS011;7826;49.784;9.934;2023-02-18T11:54:38;4.53;;;3.67;;
15449;SDS011;7826;49.784;9.934;2023-02-18T11:57:08;8.00;;;4.70;;
15449;SDS011;7826;49.784;9.934;2023-02-18T11:59:38;4.17;;;3.50;;
15449;SDS011;7826;49.784;9.934;2023-02-18T12:04:36;3.30;;;3.00;;
15449;SDS011;7826;49.784;9.934;2023-02-18T12:07:16;4.50;;;3.57;;
15449;SDS011;7826;49.784;9.934;2023-02-18T12:10:00;4.20;;;3.77;;
15449;SDS011;7826;49.784;9.934;2023-02-18T12:12:37;4.93;;;3.50;;
15449;SDS011;7826;49.784;9.934;2023-02-18T12:15:36;4.37;;;3.40;;
15449;SDS011;7826;49.784;9.934;2023-02-18T12:37:38;4.73;;;2.70;;
15449;SDS011;7826;49.784;9.934;2023-02-18T12:57:51;4.30;;;3.10;;
15449;SDS011;7826;49.784;9.934;2023-02-18T13:03:10;3.10;;;2.63;;
15449;SDS011;7826;49.784;9.934;2023-02-18T13:09:08;3.70;;;2.50;;
15449;SDS011;7826;49.784;9.934;2023-02-18T13:12:08;3.07;;;2.80;;
15449;SDS011;7826;49.784;9.934;2023-02-18T13:14:52;3.37;;;2.50;;
15449;SDS011;7826;49.784;9.934;2023-02-18T13:17:24;5.17;;;2.60;;
15449;SDS011;7826;49.784;9.934;2023-02-18T13:19:55;2.53;;;2.20;;
15449;SDS011;7826;49.784;9.934;2023-02-18T13:22:45;3.87;;;2.90;;
15449;SDS011;7826;49.784;9.934;2023-02-18T13:25:15;3.70;;;2.40;;
15449;SDS011;7826;49.784;9.934;2023-02-18T13:27:45;3.40;;;2.47;;
15449;SDS011;7826;49.784;9.934;2023-02-18T13:33:39;2.53;;;2.33;;
15449;SDS011;7826;49.784;9.934;2023-02-18T13:41:35;2.60;;;2.40;;
15449;SDS011;7826;49.784;9.934;2023-02-18T13:44:46;2.30;;;2.00;;
15449;SDS011;7826;49.784;9.934;2023-02-18T13:46:57;3.07;;;2.20;;
15449;SDS011;7826;49.784;9.934;2023-02-18T13:49:25;2.97;;;2.67;;
15449;SDS011;7826;49.784;9.934;2023-02-18T13:51:56;2.40;;;2.20;;
15449;SDS011;7826;49.784;9.934;2023-02-18T13:54:33;5.03;;;2.20;;
15449;SDS011;7826;49.784;9.934;2023-02-18T13:57:04;2.63;;;2.10;;
15449;SDS011;7826;49.784;9.934;2023-02-18T13:59:38;2.70;;;2.30;;
15449;SDS011;7826;49.784;9.934;2023-02-18T14:09:44;2.70;;;2.40;;
15449;SDS011;7826;49.784;9.934;2023-02-18T14:12:15;2.30;;;2.10;;
15449;SDS011;7826;49.784;9.934;2023-02-18T14:14:49;2.83;;;2.50;;
15449;SDS011;7826;49.784;9.934;2023-02-18T14:22:28;3.73;;;2.60;;
15449;SDS011;7826;49.784;9.934;2023-02-18T14:25:15;2.70;;;2.30;;
15449;SDS011;7826;49.784;9.934;2023-02-18T14:27:46;2.73;;;2.47;;
15449;SDS011;7826;49.784;9.934;2023-02-18T14:32:51;3.10;;;2.40;;
15449;SDS011;7826;49.784;9.934;2023-02-18T14:35:45;2.80;;;2.50;;
15449;SDS011;7826;49.784;9.934;2023-02-18T14:38:39;2.60;;;2.40;;
15449;SDS011;7826;49.784;9.934;2023-02-18T14:41:13;2.80;;;2.60;;
15449;SDS011;7826;49.784;9.934;2023-02-18T14:49:54;2.87;;;2.60;;
15449;SDS011;7826;49.784;9.934;2023-02-18T14:52:36;2.53;;;2.33;;
15449;SDS011;7826;49.784;9.934;2023-02-18T14:55:14;2.70;;;2.27;;
15449;SDS011;7826;49.784;9.934;2023-02-18T14:57:53;2.87;;;2.30;;
15449;SDS011;7826;49.784;9.934;2023-02-18T15:00:27;3.07;;;2.67;;
15449;SDS011;7826;49.784;9.934;2023-02-18T15:02:57;2.73;;;2.50;;
15449;SDS011;7826;49.784;9.934;2023-02-18T15:05:29;5.00;;;3.10;;
15449;SDS011;7826;49.784;9.934;2023-02-18T15:08:01;3.13;;;2.60;;
15449;SDS011;7826;49.784;9.934;2023-02-18T15:15:46;3.07;;;2.83;;
15449;SDS011;7826;49.784;9.934;2023-02-18T15:18:20;3.30;;;2.70;;
15449;SDS011;7826;49.784;9.934;2023-02-18T15:21:00;3.27;;;2.97;;
15449;SDS011;7826;49.784;9.934;2023-02-18T15:23:28;4.33;;;2.97;;
15449;SDS011;7826;49.784;9.934;2023-02-18T15:25:56;3.57;;;3.00;;
15449;SDS011;7826;49.784;9.934;2023-02-18T15:28:24;4.60;;;3.23;;
15449;SDS011;7826;49.784;9.934;2023-02-18T15:30:57;6.10;;;2.67;;
15449;SDS011;7826;49.784;9.934;2023-02-18T15:33:25;4.07;;;3.03;;
15449;SDS011;7826;49.784;9.934;2023-02-18T15:36:00;3.80;;;3.20;;
15449;SDS011;7826;49.784;9.934;2023-02-18T15:38:28;5.33;;;4.00;;
15449;SDS011;7826;49.784;9.934;2023-02-18T15:40:54;3.10;;;2.80;;
15449;SDS011;7826;49.784;9.934;2023-02-18T15:43:22;2.67;;;2.47;;
15449;SDS011;7826;49.784;9.934;2023-02-18T15:45:53;6.23;;;2.70;;
15449;SDS011;7826;49.784;9.934;2023-02-18T15:48:32;3.67;;;2.47;;
15449;SDS011;7826;49.784;9.934;2023-02-18T15:51:09;3.77;;;2.93;;
15449;SDS011;7826;49.784;9.934;2023-02-18T15:53:38;3.83;;;2.70;;
15449;SDS011;7826;49.784;9.934;2023-02-18T15:56:14;2.73;;;2.50;;
15449;SDS011;7826;49.784;9.934;2023-02-18T15:58:46;4.10;;;2.33;;
15449;SDS011;7826;49.784;9.934;2023-02-18T16:01:26;2.50;;;2.30;;
15449;SDS011;7826;49.784;9.934;2023-02-18T16:03:54;3.03;;;2.83;;
15449;SDS011;7826;49.784;9.934;2023-02-18T16:06:22;2.87;;;2.40;;
15449;SDS011;7826;49.784;9.934;2023-02-18T16:09:02;3.17;;;2.87;;
15449;SDS011;7826;49.784;9.934;2023-02-18T16:11:33;4.23;;;3.47;;
15449;SDS011;7826;49.784;9.934;2023-02-18T16:14:02;2.80;;;2.60;;
15449;SDS011;7826;49.784;9.934;2023-02-18T16:16:31;3.10;;;2.67;;
15449;SDS011;7826;49.784;9.934;2023-02-18T16:19:00;5.00;;;2.97;;
15449;SDS011;7826;49.784;9.934;2023-02-18T16:21:37;3.23;;;2.93;;
15449;SDS011;7826;49.784;9.934;2023-02-18T16:24:28;3.13;;;2.63;;
15449;SDS011;7826;49.784;9.934;2023-02-18T16:26:58;2.87;;;2.40;;
15449;SDS011;7826;49.784;9.934;2023-02-18T16:29:32;3.20;;;2.90;;
15449;SDS011;7826;49.784;9.934;2023-02-18T16:32:01;3.07;;;2.67;;
15449;SDS011;7826;49.784;9.934;2023-02-18T16:34:27;2.90;;;2.50;;
15449;SDS011;7826;49.784;9.934;2023-02-18T16:36:54;3.70;;;2.97;;
15449;SDS011;7826;49.784;9.934;2023-02-18T16:39:38;3.20;;;2.80;;
15449;SDS011;7826;49.784;9.934;2023-02-18T16:42:11;2.80;;;2.30;;
15449;SDS011;7826;49.784;9.934;2023-02-18T16:44:38;3.00;;;2.70;;
15449;SDS011;7826;49.784;9.934;2023-02-18T16:47:05;3.10;;;2.80;;
15449;SDS011;7826;49.784;9.934;2023-02-18T16:49:32;2.40;;;2.20;;
15449;SDS011;7826;49.784;9.934;2023-02-18T16:52:00;3.93;;;2.80;;
15449;SDS011;7826;49.784;9.934;2023-02-18T16:57:05;2.93;;;2.63;;
15449;SDS011;7826;49.784;9.934;2023-02-18T16:59:32;4.17;;;2.77;;
15449;SDS011;7826;49.784;9.934;2023-02-18T17:01:58;5.17;;;3.40;;
15449;SDS011;7826;49.784;9.934;2023-02-18T17:04:24;3.00;;;2.70;;
15449;SDS011;7826;49.784;9.934;2023-02-18T17:06:51;4.53;;;3.10;;
15449;SDS011;7826;49.784;9.934;2023-02-18T17:09:18;4.53;;;3.43;;
15449;SDS011;7826;49.784;9.934;2023-02-18T17:11:48;3.17;;;2.63;;
15449;SDS011;7826;49.784;9.934;2023-02-18T17:14:16;3.03;;;2.73;;
15449;SDS011;7826;49.784;9.934;2023-02-18T17:16:44;3.40;;;3.10;;
15449;SDS011;7826;49.784;9.934;2023-02-18T17:19:12;3.50;;;2.77;;
15449;SDS011;7826;49.784;9.934;2023-02-18T17:21:38;3.20;;;2.90;;
15449;SDS011;7826;49.784;9.934;2023-02-18T17:24:05;3.37;;;2.70;;
15449;SDS011;7826;49.784;9.934;2023-02-18T17:26:31;3.53;;;2.63;;
15449;SDS011;7826;49.784;9.934;2023-02-18T17:28:58;2.90;;;2.47;;
15449;SDS011;7826;49.784;9.934;2023-02-18T17:31:26;3.43;;;2.60;;
15449;SDS011;7826;49.784;9.934;2023-02-18T17:33:55;3.37;;;2.77;;
15449;SDS011;7826;49.784;9.934;2023-02-18T17:36:24;4.00;;;2.50;;
15449;SDS011;7826;49.784;9.934;2023-02-18T17:38:50;4.73;;;2.73;;
15449;SDS011;7826;49.784;9.934;2023-02-18T17:41:17;3.17;;;2.47;;